sensor_id;sensor_type;location;lat;lon;timestamp;pressure;altitude;pressure_sealevel;temperature;humidity
59939;BME280;45801;51.810;19.444;2023-06-14T00:00:37;99194.54;;;14.45;75.82
59939;BME280;45801;51.810;19.444;2023-06-14T00:03:27;99196.23;;;14.42;75.89
59939;BME280;45801;51.810;19.444;2023-06-14T00:05:53;99203.80;;;14.42;75.46
59939;BME280;45801;51.810;19.444;2023-06-14T00:08:20;99204.68;;;14.42;75.73
59939;BME280;45801;51.810;19.444;2023-06-14T00:10:48;99205.19;;;14.41;75.53
59939;BME280;45801;51.810;19.444;2023-06-14T00:13:15;99208.31;;;14.40;75.45
59939;BME280;45801;51.810;19.444;2023-06-14T00:15:43;99207.08;;;14.40;75.13
59939;BME280;45801;51.810;19.444;2023-06-14T00:18:10;99206.31;;;14.37;74.80
59939;BME280;45801;51.810;19.444;2023-06-14T00:20:38;99203.81;;;14.36;75.10
59939;BME280;45801;51.810;19.444;2023-06-14T00:23:05;99198.70;;;14.36;74.99
59939;BME280;45801;51.810;19.444;2023-06-14T00:25:32;99197.63;;;14.35;74.71
59939;BME280;45801;51.810;19.444;2023-06-14T00:27:58;99204.61;;;14.33;75.34
59939;BME280;45801;51.810;19.444;2023-06-14T00:30:25;99204.05;;;14.32;75.02
59939;BME280;45801;51.810;19.444;2023-06-14T00:32:51;99203.61;;;14.29;74.85
59939;BME280;45801;51.810;19.444;2023-06-14T00:35:18;99201.04;;;14.25;74.73
59939;BME280;45801;51.810;19.444;2023-06-14T00:37:44;99196.15;;;14.20;74.94
59939;BME280;45801;51.810;19.444;2023-06-14T00:40:11;99193.95;;;14.17;75.43
59939;BME280;45801;51.810;19.444;2023-06-14T00:42:37;99191.80;;;14.16;74.70
59939;BME280;45801;51.810;19.444;2023-06-14T00:45:05;99190.50;;;14.14;74.42
59939;BME280;45801;51.810;19.444;2023-06-14T00:47:32;99191.98;;;14.10;74.45
59939;BME280;45801;51.810;19.444;2023-06-14T00:50:00;99192.39;;;14.06;74.58
59939;BME280;45801;51.810;19.444;2023-06-14T00:52:27;99191.10;;;14.04;74.69
59939;BME280;45801;51.810;19.444;2023-06-14T00:54:54;99188.80;;;14.03;74.64
59939;BME280;45801;51.810;19.444;2023-06-14T00:57:20;99188.39;;;14.01;74.38
59939;BME280;45801;51.810;19.444;2023-06-14T00:59:48;99184.08;;;13.98;74.66
59939;BME280;45801;51.810;19.444;2023-06-14T01:02:16;99182.64;;;13.97;74.63
59939;BME280;45801;51.810;19.444;2023-06-14T01:04:48;99180.91;;;13.99;74.52
59939;BME280;45801;51.810;19.444;2023-06-14T01:07:25;99178.45;;;14.05;74.58
59939;BME280;45801;51.810;19.444;2023-06-14T01:15:44;99180.69;;;14.03;75.03
59939;BME280;45801;51.810;19.444;2023-06-14T01:18:11;99180.10;;;14.01;75.22
59939;BME280;45801;51.810;19.444;2023-06-14T01:20:45;99178.30;;;14.00;75.34
59939;BME280;45801;51.810;19.444;2023-06-14T01:23:17;99178.43;;;13.98;75.41
59939;BME280;45801;51.810;19.444;2023-06-14T01:25:44;99174.91;;;13.98;75.22
59939;BME280;45801;51.810;19.444;2023-06-14T01:28:11;99173.86;;;13.98;75.31
59939;BME280;45801;51.810;19.444;2023-06-14T01:30:40;99174.95;;;14.00;75.12
59939;BME280;45801;51.810;19.444;2023-06-14T01:33:16;99175.98;;;13.98;75.15
59939;BME280;45801;51.810;19.444;2023-06-14T01:35:44;99176.89;;;13.99;74.99
59939;BME280;45801;51.810;19.444;2023-06-14T01:38:13;99175.34;;;13.94;75.25
59939;BME280;45801;51.810;19.444;2023-06-14T01:40:40;99176.38;;;13.94;74.96
59939;BME280;45801;51.810;19.444;2023-06-14T01:43:09;99179.59;;;13.95;75.00
59939;BME280;45801;51.810;19.444;2023-06-14T01:45:38;99178.36;;;13.95;74.76
59939;BME280;45801;51.810;19.444;2023-06-14T01:48:06;99178.50;;;13.94;74.85
59939;BME280;45801;51.810;19.444;2023-06-14T01:50:33;99181.10;;;13.93;75.38
59939;BME280;45801;51.810;19.444;2023-06-14T01:53:00;99180.05;;;13.92;74.81
59939;BME280;45801;51.810;19.444;2023-06-14T01:55:27;99179.67;;;13.92;74.84
59939;BME280;45801;51.810;19.444;2023-06-14T01:57:54;99178.59;;;13.91;74.96
59939;BME280;45801;51.810;19.444;2023-06-14T02:00:20;99179.09;;;13.90;75.22
59939;BME280;45801;51.810;19.444;2023-06-14T02:02:47;99180.50;;;13.90;75.24
59939;BME280;45801;51.810;19.444;2023-06-14T02:05:16;99179.98;;;13.91;75.10
59939;BME280;45801;51.810;19.444;2023-06-14T02:07:45;99177.70;;;13.91;74.74
59939;BME280;45801;51.810;19.444;2023-06-14T02:10:13;99178.56;;;13.90;74.92
59939;BME280;45801;51.810;19.444;2023-06-14T02:12:41;99175.26;;;13.91;74.97
59939;BME280;45801;51.810;19.444;2023-06-14T02:15:08;99174.73;;;13.92;74.65
59939;BME280;45801;51.810;19.444;2023-06-14T02:17:35;99178.20;;;13.90;75.13
59939;BME280;45801;51.810;19.444;2023-06-14T02:20:01;99182.97;;;13.91;74.90
59939;BME280;45801;51.810;19.444;2023-06-14T02:22:31;99182.23;;;13.89;75.15
59939;BME280;45801;51.810;19.444;2023-06-14T02:24:57;99182.38;;;13.88;75.37
59939;BME280;45801;51.810;19.444;2023-06-14T02:27:24;99179.38;;;13.88;75.47
59939;BME280;45801;51.810;19.444;2023-06-14T02:29:50;99180.09;;;13.88;75.42
59939;BME280;45801;51.810;19.444;2023-06-14T02:32:28;99179.19;;;13.88;75.43
59939;BME280;45801;51.810;19.444;2023-06-14T02:34:55;99176.67;;;13.86;75.38
59939;BME280;45801;51.810;19.444;2023-06-14T02:37:21;99175.59;;;13.85;75.58
59939;BME280;45801;51.810;19.444;2023-06-14T02:39:48;99182.83;;;13.86;75.80
59939;BME280;45801;51.810;19.444;2023-06-14T02:42:14;99185.33;;;13.87;75.53
59939;BME280;45801;51.810;19.444;2023-06-14T02:44:41;99187.83;;;13.88;75.60
59939;BME280;45801;51.810;19.444;2023-06-14T02:47:07;99186.96;;;13.88;75.53
59939;BME280;45801;51.810;19.444;2023-06-14T02:49:34;99185.16;;;13.87;75.66
59939;BME280;45801;51.810;19.444;2023-06-14T02:52:00;99178.95;;;13.85;75.47
59939;BME280;45801;51.810;19.444;2023-06-14T02:54:27;99178.77;;;13.85;75.94
59939;BME280;45801;51.810;19.444;2023-06-14T02:56:54;99177.88;;;13.85;75.93
59939;BME280;45801;51.810;19.444;2023-06-14T02:59:20;99178.60;;;13.85;75.82
59939;BME280;45801;51.810;19.444;2023-06-14T03:01:47;99178.61;;;13.86;75.85
59939;BME280;45801;51.810;19.444;2023-06-14T03:04:14;99175.60;;;13.85;75.62
59939;BME280;45801;51.810;19.444;2023-06-14T03:06:41;99171.38;;;13.85;75.46
59939;BME280;45801;51.810;19.444;2023-06-14T03:09:10;99174.77;;;13.87;75.59
59939;BME280;45801;51.810;19.444;2023-06-14T03:11:36;99173.73;;;13.87;75.53
59939;BME280;45801;51.810;19.444;2023-06-14T03:14:03;99172.54;;;13.89;75.42
59939;BME280;45801;51.810;19.444;2023-06-14T03:16:34;99173.59;;;13.89;75.30
59939;BME280;45801;51.810;19.444;2023-06-14T03:19:01;99174.65;;;13.89;75.44
59939;BME280;45801;51.810;19.444;2023-06-14T03:21:27;99174.42;;;13.87;75.62
59939;BME280;45801;51.810;19.444;2023-06-14T03:23:54;99177.81;;;13.89;75.43
59939;BME280;45801;51.810;19.444;2023-06-14T03:26:22;99178.71;;;13.90;75.18
59939;BME280;45801;51.810;19.444;2023-06-14T03:28:48;99180.52;;;13.91;75.58
59939;BME280;45801;51.810;19.444;2023-06-14T03:31:16;99182.89;;;13.93;75.49
59939;BME280;45801;51.810;19.444;2023-06-14T03:33:42;99188.38;;;13.95;75.51
59939;BME280;45801;51.810;19.444;2023-06-14T03:36:09;99188.23;;;13.96;75.72
59939;BME280;45801;51.810;19.444;2023-06-14T03:38:36;99187.02;;;13.96;75.60
59939;BME280;45801;51.810;19.444;2023-06-14T03:41:02;99185.77;;;13.96;75.83
59939;BME280;45801;51.810;19.444;2023-06-14T03:43:28;99186.14;;;13.97;75.58
59939;BME280;45801;51.810;19.444;2023-06-14T03:45:56;99185.58;;;13.95;75.73
59939;BME280;45801;51.810;19.444;2023-06-14T03:48:23;99184.82;;;13.93;75.62
59939;BME280;45801;51.810;19.444;2023-06-14T03:50:49;99186.73;;;13.93;75.78
59939;BME280;45801;51.810;19.444;2023-06-14T03:53:16;99185.52;;;13.93;75.85
59939;BME280;45801;51.810;19.444;2023-06-14T03:55:43;99184.49;;;13.94;75.45
59939;BME280;45801;51.810;19.444;2023-06-14T03:58:09;99185.55;;;13.94;75.33
59939;BME280;45801;51.810;19.444;2023-06-14T04:00:37;99184.66;;;13.94;75.63
59939;BME280;45801;51.810;19.444;2023-06-14T04:03:03;99185.92;;;13.95;75.96
59939;BME280;45801;51.810;19.444;2023-06-14T04:05:39;99187.54;;;13.96;76.25
59939;BME280;45801;51.810;19.444;2023-06-14T04:08:09;99195.19;;;13.98;76.21
59939;BME280;45801;51.810;19.444;2023-06-14T04:10:36;99199.09;;;14.00;75.77
59939;BME280;45801;51.810;19.444;2023-06-14T04:13:02;99202.28;;;14.01;75.92
59939;BME280;45801;51.810;19.444;2023-06-14T04:15:29;99200.15;;;14.00;75.62
59939;BME280;45801;51.810;19.444;2023-06-14T04:17:56;99202.44;;;14.00;75.67
59939;BME280;45801;51.810;19.444;2023-06-14T04:20:23;99202.45;;;14.00;75.98
59939;BME280;45801;51.810;19.444;2023-06-14T04:22:51;99200.07;;;14.03;75.82
59939;BME280;45801;51.810;19.444;2023-06-14T04:25:19;99198.84;;;14.03;75.89
59939;BME280;45801;51.810;19.444;2023-06-14T04:27:47;99196.55;;;14.04;75.99
59939;BME280;45801;51.810;19.444;2023-06-14T04:30:13;99196.73;;;14.04;76.08
59939;BME280;45801;51.810;19.444;2023-06-14T04:32:40;99198.04;;;14.06;75.94
59939;BME280;45801;51.810;19.444;2023-06-14T04:35:07;99196.14;;;14.08;75.84
59939;BME280;45801;51.810;19.444;2023-06-14T04:37:34;99200.07;;;14.09;76.21
59939;BME280;45801;51.810;19.444;2023-06-14T04:40:01;99200.84;;;14.12;76.26
59939;BME280;45801;51.810;19.444;2023-06-14T04:42:30;99206.02;;;14.15;75.76
59939;BME280;45801;51.810;19.444;2023-06-14T04:44:57;99201.29;;;14.15;75.70
59939;BME280;45801;51.810;19.444;2023-06-14T04:47:24;99199.36;;;14.16;76.29
59939;BME280;45801;51.810;19.444;2023-06-14T04:49:56;99204.12;;;14.16;76.63
59939;BME280;45801;51.810;19.444;2023-06-14T04:52:24;99204.74;;;14.19;75.99
59939;BME280;45801;51.810;19.444;2023-06-14T04:54:52;99204.02;;;14.19;75.80
59939;BME280;45801;51.810;19.444;2023-06-14T04:57:20;99205.27;;;14.19;75.98
59939;BME280;45801;51.810;19.444;2023-06-14T04:59:48;99207.08;;;14.20;75.91
59939;BME280;45801;51.810;19.444;2023-06-14T05:02:25;99206.21;;;14.21;75.85
59939;BME280;45801;51.810;19.444;2023-06-14T05:04:53;99205.73;;;14.22;75.94
59939;BME280;45801;51.810;19.444;2023-06-14T05:07:21;99203.86;;;14.25;75.87
59939;BME280;45801;51.810;19.444;2023-06-14T05:09:50;99202.72;;;14.28;76.23
59939;BME280;45801;51.810;19.444;2023-06-14T05:12:16;99204.70;;;14.30;76.34
59939;BME280;45801;51.810;19.444;2023-06-14T05:14:45;99204.56;;;14.32;76.23
59939;BME280;45801;51.810;19.444;2023-06-14T05:17:11;99200.91;;;14.33;76.16
59939;BME280;45801;51.810;19.444;2023-06-14T05:19:38;99198.82;;;14.34;75.85
59939;BME280;45801;51.810;19.444;2023-06-14T05:22:04;99200.21;;;14.34;76.19
59939;BME280;45801;51.810;19.444;2023-06-14T05:24:31;99198.13;;;14.35;76.51
59939;BME280;45801;51.810;19.444;2023-06-14T05:26:58;99195.02;;;14.37;76.28
59939;BME280;45801;51.810;19.444;2023-06-14T05:29:25;99199.28;;;14.38;76.44
59939;BME280;45801;51.810;19.444;2023-06-14T05:31:52;99195.63;;;14.40;76.63
59939;BME280;45801;51.810;19.444;2023-06-14T05:34:19;99195.33;;;14.42;76.16
59939;BME280;45801;51.810;19.444;2023-06-14T05:36:46;99194.29;;;14.42;76.40
59939;BME280;45801;51.810;19.444;2023-06-14T05:39:13;99192.00;;;14.42;76.05
59939;BME280;45801;51.810;19.444;2023-06-14T05:41:39;99188.05;;;14.40;75.93
59939;BME280;45801;51.810;19.444;2023-06-14T05:44:06;99192.26;;;14.39;75.92
59939;BME280;45801;51.810;19.444;2023-06-14T05:46:34;99197.40;;;14.40;76.19
59939;BME280;45801;51.810;19.444;2023-06-14T05:49:00;99200.85;;;14.44;76.17
59939;BME280;45801;51.810;19.444;2023-06-14T05:51:27;99198.81;;;14.47;76.09
59939;BME280;45801;51.810;19.444;2023-06-14T05:53:53;99204.19;;;14.50;76.13
59939;BME280;45801;51.810;19.444;2023-06-14T05:56:21;99202.48;;;14.53;76.19
59939;BME280;45801;51.810;19.444;2023-06-14T05:58:47;99201.70;;;14.56;75.85
59939;BME280;45801;51.810;19.444;2023-06-14T06:01:15;99205.72;;;14.60;75.92
59939;BME280;45801;51.810;19.444;2023-06-14T06:03:41;99205.66;;;14.64;75.81
59939;BME280;45801;51.810;19.444;2023-06-14T06:06:12;99210.00;;;14.68;75.41
59939;BME280;45801;51.810;19.444;2023-06-14T06:08:39;99211.52;;;14.72;75.51
59939;BME280;45801;51.810;19.444;2023-06-14T06:11:05;99212.49;;;14.76;75.80
59939;BME280;45801;51.810;19.444;2023-06-14T06:13:32;99213.48;;;14.81;75.63
59939;BME280;45801;51.810;19.444;2023-06-14T06:15:59;99215.15;;;14.83;75.36
59939;BME280;45801;51.810;19.444;2023-06-14T06:18:25;99217.52;;;14.87;74.96
59939;BME280;45801;51.810;19.444;2023-06-14T06:20:52;99220.39;;;14.88;74.86
59939;BME280;45801;51.810;19.444;2023-06-14T06:23:18;99224.65;;;14.89;74.54
59939;BME280;45801;51.810;19.444;2023-06-14T06:25:44;99223.94;;;14.89;74.38
59939;BME280;45801;51.810;19.444;2023-06-14T06:28:11;99223.89;;;14.88;74.34
59939;BME280;45801;51.810;19.444;2023-06-14T06:30:38;99225.83;;;14.87;74.25
59939;BME280;45801;51.810;19.444;2023-06-14T06:33:04;99225.84;;;14.88;74.52
59939;BME280;45801;51.810;19.444;2023-06-14T06:35:31;99227.23;;;14.87;74.42
59939;BME280;45801;51.810;19.444;2023-06-14T06:37:59;99224.34;;;14.84;74.39
59939;BME280;45801;51.810;19.444;2023-06-14T06:40:27;99218.88;;;14.84;74.75
59939;BME280;45801;51.810;19.444;2023-06-14T06:42:53;99218.22;;;14.86;74.86
59939;BME280;45801;51.810;19.444;2023-06-14T06:45:21;99219.10;;;14.86;75.02
59939;BME280;45801;51.810;19.444;2023-06-14T06:47:48;99218.26;;;14.88;74.76
59939;BME280;45801;51.810;19.444;2023-06-14T06:50:14;99219.39;;;14.91;74.82
59939;BME280;45801;51.810;19.444;2023-06-14T06:52:41;99223.20;;;14.95;75.06
59939;BME280;45801;51.810;19.444;2023-06-14T06:55:08;99224.52;;;14.98;74.97
59939;BME280;45801;51.810;19.444;2023-06-14T06:57:37;99226.20;;;15.01;75.12
59939;BME280;45801;51.810;19.444;2023-06-14T07:00:05;99227.71;;;15.06;75.24
59939;BME280;45801;51.810;19.444;2023-06-14T07:02:36;99229.56;;;15.09;75.16
59939;BME280;45801;51.810;19.444;2023-06-14T07:05:03;99229.42;;;15.10;74.88
59939;BME280;45801;51.810;19.444;2023-06-14T07:07:30;99233.36;;;15.13;74.74
59939;BME280;45801;51.810;19.444;2023-06-14T07:09:58;99229.77;;;15.17;74.44
59939;BME280;45801;51.810;19.444;2023-06-14T07:12:25;99231.30;;;15.23;74.50
59939;BME280;45801;51.810;19.444;2023-06-14T07:14:52;99227.81;;;15.25;74.43
59939;BME280;45801;51.810;19.444;2023-06-14T07:17:18;99229.65;;;15.27;74.38
59939;BME280;45801;51.810;19.444;2023-06-14T07:19:45;99231.50;;;15.31;74.52
59939;BME280;45801;51.810;19.444;2023-06-14T07:22:12;99232.51;;;15.35;74.69
59939;BME280;45801;51.810;19.444;2023-06-14T07:24:39;99228.25;;;15.42;75.19
59939;BME280;45801;51.810;19.444;2023-06-14T07:27:06;99228.20;;;15.48;74.73
59939;BME280;45801;51.810;19.444;2023-06-14T07:29:34;99228.70;;;15.54;74.41
59939;BME280;45801;51.810;19.444;2023-06-14T07:32:00;99226.95;;;15.62;74.46
59939;BME280;45801;51.810;19.444;2023-06-14T07:34:27;99230.45;;;15.69;74.55
59939;BME280;45801;51.810;19.444;2023-06-14T07:36:53;99232.89;;;15.75;74.58
59939;BME280;45801;51.810;19.444;2023-06-14T07:39:20;99234.94;;;15.79;74.39
59939;BME280;45801;51.810;19.444;2023-06-14T07:41:47;99236.30;;;15.84;74.19
59939;BME280;45801;51.810;19.444;2023-06-14T07:44:13;99235.58;;;15.91;74.44
59939;BME280;45801;51.810;19.444;2023-06-14T07:46:40;99237.36;;;16.01;73.67
59939;BME280;45801;51.810;19.444;2023-06-14T07:49:06;99240.05;;;16.10;73.21
59939;BME280;45801;51.810;19.444;2023-06-14T07:51:33;99239.54;;;16.19;72.98
59939;BME280;45801;51.810;19.444;2023-06-14T07:53:59;99238.98;;;16.26;72.28
59939;BME280;45801;51.810;19.444;2023-06-14T07:56:27;99240.83;;;16.31;71.99
59939;BME280;45801;51.810;19.444;2023-06-14T07:58:53;99241.32;;;16.38;72.03
59939;BME280;45801;51.810;19.444;2023-06-14T08:01:20;99237.79;;;16.47;71.96
59939;BME280;45801;51.810;19.444;2023-06-14T08:03:46;99236.20;;;16.57;71.54
59939;BME280;45801;51.810;19.444;2023-06-14T08:06:13;99235.64;;;16.64;70.71
59939;BME280;45801;51.810;19.444;2023-06-14T08:08:39;99236.16;;;16.73;71.30
59939;BME280;45801;51.810;19.444;2023-06-14T08:11:06;99239.81;;;16.79;69.71
59939;BME280;45801;51.810;19.444;2023-06-14T08:13:32;99237.15;;;16.78;70.19
59939;BME280;45801;51.810;19.444;2023-06-14T08:15:59;99233.98;;;16.79;70.17
59939;BME280;45801;51.810;19.444;2023-06-14T08:18:27;99235.62;;;16.82;69.96
59939;BME280;45801;51.810;19.444;2023-06-14T08:20:54;99236.56;;;16.85;69.93
59939;BME280;45801;51.810;19.444;2023-06-14T08:23:20;99236.17;;;16.84;69.51
59939;BME280;45801;51.810;19.444;2023-06-14T08:25:47;99240.92;;;16.83;69.46
59939;BME280;45801;51.810;19.444;2023-06-14T08:28:14;99238.64;;;16.82;69.51
59939;BME280;45801;51.810;19.444;2023-06-14T08:30:42;99238.65;;;16.83;69.49
59939;BME280;45801;51.810;19.444;2023-06-14T08:33:08;99243.61;;;16.84;69.66
59939;BME280;45801;51.810;19.444;2023-06-14T08:35:35;99243.48;;;16.86;69.48
59939;BME280;45801;51.810;19.444;2023-06-14T08:38:05;99241.98;;;16.89;68.56
59939;BME280;45801;51.810;19.444;2023-06-14T08:40:37;99239.02;;;16.91;68.40
59939;BME280;45801;51.810;19.444;2023-06-14T08:43:05;99236.04;;;16.93;68.80
59939;BME280;45801;51.810;19.444;2023-06-14T08:45:31;99237.19;;;16.99;69.03
59939;BME280;45801;51.810;19.444;2023-06-14T08:47:59;99237.33;;;17.07;68.85
59939;BME280;45801;51.810;19.444;2023-06-14T08:50:27;99233.92;;;17.14;68.46
59939;BME280;45801;51.810;19.444;2023-06-14T08:52:58;99236.32;;;17.20;68.48
59939;BME280;45801;51.810;19.444;2023-06-14T08:55:29;99234.64;;;17.26;68.54
59939;BME280;45801;51.810;19.444;2023-06-14T08:57:57;99235.55;;;17.27;68.09
59939;BME280;45801;51.810;19.444;2023-06-14T09:00:25;99235.91;;;17.28;68.49
59939;BME280;45801;51.810;19.444;2023-06-14T09:02:53;99239.83;;;17.29;68.26
59939;BME280;45801;51.810;19.444;2023-06-14T09:05:26;99236.85;;;17.31;67.91
59939;BME280;45801;51.810;19.444;2023-06-14T09:07:54;99235.95;;;17.30;67.65
59939;BME280;45801;51.810;19.444;2023-06-14T09:10:27;99241.08;;;17.30;67.93
59939;BME280;45801;51.810;19.444;2023-06-14T09:12:55;99242.36;;;17.32;67.93
59939;BME280;45801;51.810;19.444;2023-06-14T09:15:21;99240.59;;;17.33;67.67
59939;BME280;45801;51.810;19.444;2023-06-14T09:17:48;99243.95;;;17.32;67.72
59939;BME280;45801;51.810;19.444;2023-06-14T09:20:14;99245.55;;;17.33;68.04
59939;BME280;45801;51.810;19.444;2023-06-14T09:22:44;99245.56;;;17.33;66.81
59939;BME280;45801;51.810;19.444;2023-06-14T09:25:11;99245.73;;;17.33;67.00
59939;BME280;45801;51.810;19.444;2023-06-14T09:27:41;99248.98;;;17.36;66.79
59939;BME280;45801;51.810;19.444;2023-06-14T09:30:08;99248.66;;;17.39;66.95
59939;BME280;45801;51.810;19.444;2023-06-14T09:32:38;99247.92;;;17.37;65.89
59939;BME280;45801;51.810;19.444;2023-06-14T09:35:08;99250.73;;;17.36;66.19
59939;BME280;45801;51.810;19.444;2023-06-14T09:37:35;99250.05;;;17.37;66.13
59939;BME280;45801;51.810;19.444;2023-06-14T09:40:03;99246.39;;;17.40;65.84
59939;BME280;45801;51.810;19.444;2023-06-14T09:42:30;99247.11;;;17.42;65.44
59939;BME280;45801;51.810;19.444;2023-06-14T09:44:57;99248.21;;;17.44;66.16
59939;BME280;45801;51.810;19.444;2023-06-14T09:47:23;99246.64;;;17.45;65.72
59939;BME280;45801;51.810;19.444;2023-06-14T09:49:50;99244.35;;;17.46;64.99
59939;BME280;45801;51.810;19.444;2023-06-14T09:52:18;99244.38;;;17.47;65.11
59939;BME280;45801;51.810;19.444;2023-06-14T09:54:46;99243.36;;;17.52;65.63
59939;BME280;45801;51.810;19.444;2023-06-14T09:57:14;99243.80;;;17.56;65.42
59939;BME280;45801;51.810;19.444;2023-06-14T09:59:44;99243.50;;;17.61;64.27
59939;BME280;45801;51.810;19.444;2023-06-14T10:04:49;99243.11;;;17.58;62.99
59939;BME280;45801;51.810;19.444;2023-06-14T10:07:18;99242.42;;;17.60;64.31
59939;BME280;45801;51.810;19.444;2023-06-14T10:09:46;99237.58;;;17.66;64.82
59939;BME280;45801;51.810;19.444;2023-06-14T10:12:16;99237.69;;;17.74;64.85
59939;BME280;45801;51.810;19.444;2023-06-14T10:14:48;99239.94;;;17.82;64.05
59939;BME280;45801;51.810;19.444;2023-06-14T10:17:50;99237.39;;;17.89;64.29
59939;BME280;45801;51.810;19.444;2023-06-14T10:22:48;99232.95;;;18.01;63.14
59939;BME280;45801;51.810;19.444;2023-06-14T10:25:30;99232.79;;;18.02;63.53
59939;BME280;45801;51.810;19.444;2023-06-14T10:30:30;99231.20;;;18.01;64.16
59939;BME280;45801;51.810;19.444;2023-06-14T10:33:06;99232.60;;;18.01;64.02
59939;BME280;45801;51.810;19.444;2023-06-14T10:35:33;99231.20;;;18.01;63.88
59939;BME280;45801;51.810;19.444;2023-06-14T10:38:07;99230.66;;;18.02;63.84
59939;BME280;45801;51.810;19.444;2023-06-14T10:40:33;99227.59;;;17.97;62.80
59939;BME280;45801;51.810;19.444;2023-06-14T10:43:00;99227.53;;;17.93;62.49
59939;BME280;45801;51.810;19.444;2023-06-14T10:45:26;99225.00;;;17.90;62.88
59939;BME280;45801;51.810;19.444;2023-06-14T10:47:52;99223.52;;;17.86;63.34
59939;BME280;45801;51.810;19.444;2023-06-14T10:50:29;99221.92;;;17.86;63.44
59939;BME280;45801;51.810;19.444;2023-06-14T10:52:55;99221.03;;;17.85;63.63
59939;BME280;45801;51.810;19.444;2023-06-14T10:55:22;99220.66;;;17.85;63.61
59939;BME280;45801;51.810;19.444;2023-06-14T10:57:52;99220.48;;;17.84;63.91
59939;BME280;45801;51.810;19.444;2023-06-14T11:00:22;99220.73;;;17.88;63.92
59939;BME280;45801;51.810;19.444;2023-06-14T11:02:51;99223.67;;;17.96;64.16
59939;BME280;45801;51.810;19.444;2023-06-14T11:05:27;99221.33;;;18.06;63.89
59939;BME280;45801;51.810;19.444;2023-06-14T11:10:35;99217.48;;;18.11;62.58
59939;BME280;45801;51.810;19.444;2023-06-14T11:13:06;99213.14;;;18.17;63.27
59939;BME280;45801;51.810;19.444;2023-06-14T11:15:33;99213.40;;;18.24;63.14
59939;BME280;45801;51.810;19.444;2023-06-14T11:18:04;99212.73;;;18.29;62.53
59939;BME280;45801;51.810;19.444;2023-06-14T11:20:32;99210.48;;;18.32;62.96
59939;BME280;45801;51.810;19.444;2023-06-14T11:22:59;99212.48;;;18.37;62.75
59939;BME280;45801;51.810;19.444;2023-06-14T11:25:26;99211.44;;;18.38;62.02
59939;BME280;45801;51.810;19.444;2023-06-14T11:27:55;99209.09;;;18.35;62.11
59939;BME280;45801;51.810;19.444;2023-06-14T11:30:22;99208.58;;;18.36;63.16
59939;BME280;45801;51.810;19.444;2023-06-14T11:32:49;99209.11;;;18.36;63.16
59939;BME280;45801;51.810;19.444;2023-06-14T11:35:17;99209.11;;;18.36;62.61
59939;BME280;45801;51.810;19.444;2023-06-14T11:37:44;99206.19;;;18.29;61.64
59939;BME280;45801;51.810;19.444;2023-06-14T11:40:11;99203.29;;;18.23;62.05
59939;BME280;45801;51.810;19.444;2023-06-14T11:42:39;99203.59;;;18.19;62.30
59939;BME280;45801;51.810;19.444;2023-06-14T11:45:09;99201.73;;;18.13;61.68
59939;BME280;45801;51.810;19.444;2023-06-14T11:47:36;99200.64;;;18.10;62.25
59939;BME280;45801;51.810;19.444;2023-06-14T11:50:04;99201.73;;;18.13;63.01
59939;BME280;45801;51.810;19.444;2023-06-14T11:52:31;99198.48;;;18.08;62.20
59939;BME280;45801;51.810;19.444;2023-06-14T11:54:58;99198.29;;;18.06;62.62
59939;BME280;45801;51.810;19.444;2023-06-14T11:57:25;99195.47;;;17.94;61.90
59939;BME280;45801;51.810;19.444;2023-06-14T11:59:51;99190.12;;;17.91;62.50
59939;BME280;45801;51.810;19.444;2023-06-14T12:02:19;99189.98;;;17.94;63.12
59939;BME280;45801;51.810;19.444;2023-06-14T12:05:04;99188.77;;;18.11;63.33
59939;BME280;45801;51.810;19.444;2023-06-14T12:07:32;99187.86;;;18.23;62.39
59939;BME280;45801;51.810;19.444;2023-06-14T12:12:25;99184.30;;;18.22;61.81
59939;BME280;45801;51.810;19.444;2023-06-14T12:14:52;99183.21;;;18.19;61.08
59939;BME280;45801;51.810;19.444;2023-06-14T12:17:19;99180.02;;;18.20;60.53
59939;BME280;45801;51.810;19.444;2023-06-14T12:19:46;99174.87;;;18.18;60.56
59939;BME280;45801;51.810;19.444;2023-06-14T12:22:12;99172.73;;;18.18;60.99
59939;BME280;45801;51.810;19.444;2023-06-14T12:24:42;99167.79;;;18.20;61.08
59939;BME280;45801;51.810;19.444;2023-06-14T12:27:08;99162.84;;;18.22;60.39
59939;BME280;45801;51.810;19.444;2023-06-14T12:29:35;99159.70;;;18.26;60.62
59939;BME280;45801;51.810;19.444;2023-06-14T12:32:01;99157.81;;;18.32;61.38
59939;BME280;45801;51.810;19.444;2023-06-14T12:34:28;99157.19;;;18.39;61.17
59939;BME280;45801;51.810;19.444;2023-06-14T12:36:54;99155.45;;;18.43;60.97
59939;BME280;45801;51.810;19.444;2023-06-14T12:39:21;99158.69;;;18.47;61.99
59939;BME280;45801;51.810;19.444;2023-06-14T12:41:47;99158.33;;;18.48;60.60
59939;BME280;45801;51.810;19.444;2023-06-14T12:44:15;99162.02;;;18.44;60.88
59939;BME280;45801;51.810;19.444;2023-06-14T12:46:41;99163.21;;;18.39;62.20
59939;BME280;45801;51.810;19.444;2023-06-14T12:49:09;99165.27;;;18.34;62.39
59939;BME280;45801;51.810;19.444;2023-06-14T12:51:37;99168.94;;;18.29;63.49
59939;BME280;45801;51.810;19.444;2023-06-14T12:54:03;99175.61;;;18.23;64.10
59939;BME280;45801;51.810;19.444;2023-06-14T12:56:30;99184.38;;;18.14;65.24
59939;BME280;45801;51.810;19.444;2023-06-14T12:58:56;99189.20;;;18.02;66.30
59939;BME280;45801;51.810;19.444;2023-06-14T13:01:23;99192.01;;;17.88;68.12
59939;BME280;45801;51.810;19.444;2023-06-14T13:03:49;99195.69;;;17.73;68.55
59939;BME280;45801;51.810;19.444;2023-06-14T13:06:17;99199.34;;;17.56;68.87
59939;BME280;45801;51.810;19.444;2023-06-14T13:08:43;99200.47;;;17.36;69.03
59939;BME280;45801;51.810;19.444;2023-06-14T13:11:10;99198.61;;;17.20;70.43